Weather observations for the past three days for
Stampede Pass
Metric (Imperial)
Date Time (pdt) Wind (kph) Vis. (km) Weather Sky Cond. Temperature (ºC) Relative Humidity Wind Chill (°C) Heat Index (°C) Pressure Precipitation (cm)
Air Dwpt 6 hour altimeter (cm) sea level (mb) 1 hr 3 hr 6 hr
Max. Min.
05 13:56 Vrbl 9 16.09 Fair CLR 17.8 9.4 58% 76.23 980.4
05 12:56 Vrbl 7 16.09 Fair CLR 17.2 9.4 60% 76.23 980.3
05 11:56 Vrbl 9 16.09 Fair CLR 15 7.8 62% 76.23 980.3
05 10:56 Vrbl 9 16.09 Fair CLR 13.3 8.3 13.3 8.3 72% 76.2 980.1
05 09:56 Vrbl 9 16.09 Fair CLR 11.7 8.3 80% 76.2 980.0
05 08:56 SW 7 16.09 Fair CLR 10.6 7.8 83% 76.17 979.7
05 07:56 SW 7 16.09 Fair CLR 10 7.8 86% 9 76.15 979.4
05 06:56 SW 7 16.09 Fair CLR 8.9 8.3 96% 8 76.12 979.0
05 05:56 SW 7 11.27 Fair CLR 8.3 8.3 100% 7 76.07 978.7
05 04:56 Vrbl 7 11.27 Fair CLR 8.3 7.8 10.6 8.3 97% 7 76.07 978.5
05 03:56 Vrbl 7 11.27 Fair CLR 8.3 8.3 100% 7 76.07 978.5
05 02:56 SW 9 12.87 Fair CLR 8.3 8.3 100% 7 76.05 978.3
05 01:56 SW 11 16.09 A Few Clouds FEW090 8.3 7.8 97% 7 76.05 978.3
05 00:56 SW 9 16.09 Mostly Cloudy BKN090 9.4 7.2 86% 8 76.05 978.3
04 23:56 Vrbl 7 16.09 Fair CLR 10.6 6.7 77% 76.02 978.1
04 22:56 SW 7 16.09 Fair CLR 10.6 6.1 20 10.6 74% 76.02 978.1
04 21:56 SW 7 16.09 Fair CLR 11.1 4.4 64% 76.05 978.1
04 20:56 Vrbl 6 16.09 Fair CLR 13.3 3.9 53% 76.02 977.9
04 19:56 Vrbl 7 16.09 Fair CLR 15 4.4 49% 75.97 977.4
04 18:56 Vrbl 9 16.09 Fair CLR 17.2 3.9 41% 75.97 977.4
04 17:56 Vrbl 7 16.09 Fair CLR 18.9 5.6 42% 75.97 977.5
04 16:56 Vrbl 11 16.09 Fair CLR 20 3.3 20.6 17.2 33% 75.97 977.4
04 15:56 NW 13 16.09 Fair CLR 20 3.9 35% 76 977.5
04 14:56 Calm 16.09 Fair CLR 20 3.9 35% 76 977.6
04 13:56 Calm 16.09 Fair CLR 20 3.3 33% 76.02 977.9
04 12:56 Calm 16.09 Fair CLR 19.4 3.9 36% 76.02 978.0
04 11:56 Calm 16.09 Fair CLR 18.3 3.9 39% 76.05 978.2
04 10:56 Vrbl 7 16.09 Fair CLR 17.2 2.2 17.2 11.1 37% 76.05 978.2
04 09:56 Calm 16.09 Fair CLR 16.7 2.2 38% 76.02 978.1
04 08:56 Vrbl 7 16.09 Fair CLR 15 0 36% 76.02 977.8
04 07:56 SW 6 16.09 Fair CLR 12.2 0 43% 76 977.8
04 06:56 Vrbl 6 16.09 Fair CLR 11.7 0.6 47% 76 977.7
04 05:56 SW 6 16.09 Fair CLR 11.1 0.6 49% 75.97 977.4
04 04:56 SW 6 16.09 Fair CLR 11.7 0.6 13.3 11.1 47% 76 977.6
04 03:56 S 6 16.09 Fair CLR 11.7 1.7 51% 76 977.6
04 02:56 SW 6 16.09 Fair CLR 11.7 1.7 51% 76 977.8
04 01:56 Calm 16.09 Fair CLR 12.2 2.2 51% 76 977.8
04 00:56 SW 7 16.09 Fair CLR 12.8 2.2 49% 76.05 978.1
03 23:56 SW 6 16.09 Fair CLR 12.2 2.2 51% 76.05 978.2
03 22:56 Vrbl 6 16.09 Fair CLR 12.8 2.2 22.2 12.8 49% 76.05 978.3
03 21:56 Vrbl 6 16.09 Fair CLR 13.3 2.8 49% 76.07 978.5
03 20:56 W 6 16.09 Fair CLR 15.6 2.2 41% 76.07 978.4
03 19:56 Vrbl 6 16.09 Fair CLR 17.2 1.7 35% 76.05 978.3
03 18:56 W 13 16.09 Fair CLR 19.4 1.1 30% 76.05 978.4
03 17:56 NW 11 16.09 Fair CLR 21.1 2.2 29% 76.07 978.6
03 16:56 NW 11 16.09 Fair CLR 21.7 1.1 22.8 19.4 26% 76.1 978.8
03 15:56 Vrbl 9 G 28 16.09 Fair CLR 22.2 2.2 27% 76.12 979.3
03 14:56 Vrbl 6 16.09 A Few Clouds FEW085 22.2 1.1 25% 76.17 979.8
03 13:56 Vrbl 6 16.09 Fair CLR 21.1 0 25% 76.2 980.1
03 12:56 Calm 16.09 Fair CLR 22.2 2.2 27% 76.25 980.7
03 11:56 Calm 16.09 Fair CLR 19.4 0.6 29% 76.3 981.3
03 10:56 Calm 16.09 Fair CLR 20 3.9 20 12.8 35% 76.33 981.6
03 09:56 Calm 16.09 Fair CLR 17.8 3.9 40% 76.33 981.6
03 08:56 Calm 16.09 Fair CLR 16.1 3.3 43% 76.35 981.7
03 07:56 Calm 16.09 Fair CLR 13.9 5.6 58% 76.33 981.6
03 06:56 Calm 16.09 Fair CLR 13.3 4.4 55% 76.33 981.5
03 05:56 Calm 16.09 Fair CLR 13.3 2.2 47% 76.33 981.5
03 04:56 Calm 16.09 Fair CLR 13.3 2.2 15.6 13.3 47% 76.35 981.7
03 03:56 Calm 16.09 Fair CLR 13.9 2.2 45% 76.35 981.9
03 02:56 Calm 16.09 Fair CLR 13.3 2.8 49% 76.35 982.0
03 01:56 Calm 16.09 Fair CLR 14.4 2.2 44% 76.38 982.2
03 00:56 Calm 16.09 Fair CLR 15 3.3 46% 76.38 982.2
02 23:56 Calm 16.09 Fair CLR 15 3.9 48% 76.38 982.2
02 22:56 Calm 16.09 Fair CLR 15.6 3.9 20.6 15 46% 76.38 982.2
02 21:56 Calm 16.09 Fair CLR 15.6 3.3 44% 76.38 982.0
02 20:56 Calm 16.09 Fair CLR 15.6 2.8 42% 76.33 981.6
02 19:56 Calm 16.09 Partly Cloudy SCT080 16.7 2.2 38% 76.28 981.0
02 18:56 Calm 16.09 Fair CLR 17.2 2.8 38% 76.28 980.9
02 17:56 Calm 16.09 Partly Cloudy SCT110 18.3 2.8 36% 76.25 980.8
02 16:56 Calm 16.09 Fair CLR 20 2.2 21.1 13.3 31% 76.28 980.9
02 15:56 Calm 16.09 Fair CLR 21.1 2.2 29% 76.3 981.3
02 14:56 Vrbl 6 16.09 Fair CLR 20.6 2.8 31% 76.33 981.6
Date Time (pdt) Wind (kph) Vis. (km) Weather Sky Cond. Air Dwpt Max. Min. Relative Humidity Wind Chill (°C) Heat Index (°C) altimeter (cm) sea level (mb) 1 hr 3 hr 6 hr
6 hour
Temperature (ºC) Pressure Precipitation (cm)